sensor_id;sensor_type;location;lat;lon;timestamp;temperature;humidity
13462;DHT22;6803;45.264;5.468;2023-03-31T00:01:40;12.10;99.90
13462;DHT22;6803;45.264;5.468;2023-03-31T00:04:12;12.00;99.90
13462;DHT22;6803;45.264;5.468;2023-03-31T00:06:43;12.00;99.90
13462;DHT22;6803;45.264;5.468;2023-03-31T00:09:15;12.00;99.90
13462;DHT22;6803;45.264;5.468;2023-03-31T00:11:47;11.90;99.90
13462;DHT22;6803;45.264;5.468;2023-03-31T00:14:20;12.00;99.90
13462;DHT22;6803;45.264;5.468;2023-03-31T00:16:51;12.00;99.90
13462;DHT22;6803;45.264;5.468;2023-03-31T00:19:22;11.90;99.90
13462;DHT22;6803;45.264;5.468;2023-03-31T00:21:53;12.00;99.90
13462;DHT22;6803;45.264;5.468;2023-03-31T00:24:24;12.00;99.90
13462;DHT22;6803;45.264;5.468;2023-03-31T00:26:55;12.10;99.90
13462;DHT22;6803;45.264;5.468;2023-03-31T00:29:45;12.10;99.90
13462;DHT22;6803;45.264;5.468;2023-03-31T00:32:18;12.00;99.90
13462;DHT22;6803;45.264;5.468;2023-03-31T00:34:49;12.10;99.90
13462;DHT22;6803;45.264;5.468;2023-03-31T00:37:20;12.10;99.90
13462;DHT22;6803;45.264;5.468;2023-03-31T00:39:51;12.20;99.90
13462;DHT22;6803;45.264;5.468;2023-03-31T00:42:22;12.30;99.90
13462;DHT22;6803;45.264;5.468;2023-03-31T00:45:24;12.20;99.90
13462;DHT22;6803;45.264;5.468;2023-03-31T00:48:00;12.20;99.90
13462;DHT22;6803;45.264;5.468;2023-03-31T00:50:34;12.20;99.90
13462;DHT22;6803;45.264;5.468;2023-03-31T00:53:07;12.30;99.90
13462;DHT22;6803;45.264;5.468;2023-03-31T00:55:41;12.40;99.90
13462;DHT22;6803;45.264;5.468;2023-03-31T00:58:13;12.50;99.90
13462;DHT22;6803;45.264;5.468;2023-03-31T01:00:47;12.50;99.90
13462;DHT22;6803;45.264;5.468;2023-03-31T01:03:21;12.40;99.90
13462;DHT22;6803;45.264;5.468;2023-03-31T01:05:54;12.50;99.90
13462;DHT22;6803;45.264;5.468;2023-03-31T01:08:26;12.60;99.90
13462;DHT22;6803;45.264;5.468;2023-03-31T01:11:01;12.60;99.90
13462;DHT22;6803;45.264;5.468;2023-03-31T01:13:32;12.60;99.90
13462;DHT22;6803;45.264;5.468;2023-03-31T01:16:05;12.50;99.90
13462;DHT22;6803;45.264;5.468;2023-03-31T01:18:37;12.40;99.90
13462;DHT22;6803;45.264;5.468;2023-03-31T01:24:40;12.40;99.90
13462;DHT22;6803;45.264;5.468;2023-03-31T01:30:53;12.30;99.90
13462;DHT22;6803;45.264;5.468;2023-03-31T01:43:06;12.20;99.90
13462;DHT22;6803;45.264;5.468;2023-03-31T01:45:48;12.20;99.90
13462;DHT22;6803;45.264;5.468;2023-03-31T01:48:21;12.20;99.90
13462;DHT22;6803;45.264;5.468;2023-03-31T01:50:55;12.10;99.90
13462;DHT22;6803;45.264;5.468;2023-03-31T01:53:28;12.20;99.90
13462;DHT22;6803;45.264;5.468;2023-03-31T01:56:04;12.20;99.90
13462;DHT22;6803;45.264;5.468;2023-03-31T01:58:37;12.20;99.90
13462;DHT22;6803;45.264;5.468;2023-03-31T02:03:52;12.30;99.90
13462;DHT22;6803;45.264;5.468;2023-03-31T02:06:26;12.30;99.90
13462;DHT22;6803;45.264;5.468;2023-03-31T02:11:42;12.30;99.90
13462;DHT22;6803;45.264;5.468;2023-03-31T02:14:16;12.30;99.90
13462;DHT22;6803;45.264;5.468;2023-03-31T02:16:51;12.40;99.90
13462;DHT22;6803;45.264;5.468;2023-03-31T02:19:27;12.50;99.90
13462;DHT22;6803;45.264;5.468;2023-03-31T02:21:59;12.40;99.90
13462;DHT22;6803;45.264;5.468;2023-03-31T02:24:34;12.30;99.90
13462;DHT22;6803;45.264;5.468;2023-03-31T02:27:24;12.30;99.90
13462;DHT22;6803;45.264;5.468;2023-03-31T02:29:56;12.30;99.90
13462;DHT22;6803;45.264;5.468;2023-03-31T02:32:30;12.30;99.90
13462;DHT22;6803;45.264;5.468;2023-03-31T02:35:02;12.30;99.90
13462;DHT22;6803;45.264;5.468;2023-03-31T02:37:33;12.30;99.90
13462;DHT22;6803;45.264;5.468;2023-03-31T02:40:09;12.40;99.90
13462;DHT22;6803;45.264;5.468;2023-03-31T02:42:42;12.40;99.90
13462;DHT22;6803;45.264;5.468;2023-03-31T02:48:21;12.40;99.90
13462;DHT22;6803;45.264;5.468;2023-03-31T02:57:33;12.10;99.90
13462;DHT22;6803;45.264;5.468;2023-03-31T03:00:10;12.00;99.90
13462;DHT22;6803;45.264;5.468;2023-03-31T03:02:49;12.00;99.90
13462;DHT22;6803;45.264;5.468;2023-03-31T03:05:27;12.00;99.90
13462;DHT22;6803;45.264;5.468;2023-03-31T03:08:04;12.00;99.90
13462;DHT22;6803;45.264;5.468;2023-03-31T03:10:39;12.20;99.90
13462;DHT22;6803;45.264;5.468;2023-03-31T03:13:14;12.20;99.90
13462;DHT22;6803;45.264;5.468;2023-03-31T03:15:47;12.10;99.90
13462;DHT22;6803;45.264;5.468;2023-03-31T03:18:19;12.10;99.90
13462;DHT22;6803;45.264;5.468;2023-03-31T03:20:49;12.00;99.90
13462;DHT22;6803;45.264;5.468;2023-03-31T03:23:20;11.90;99.90
13462;DHT22;6803;45.264;5.468;2023-03-31T03:25:51;11.80;99.90
13462;DHT22;6803;45.264;5.468;2023-03-31T03:28:22;11.70;99.90
13462;DHT22;6803;45.264;5.468;2023-03-31T03:30:52;11.60;99.90
13462;DHT22;6803;45.264;5.468;2023-03-31T03:33:23;11.60;99.90
13462;DHT22;6803;45.264;5.468;2023-03-31T03:35:54;11.60;99.90
13462;DHT22;6803;45.264;5.468;2023-03-31T03:38:25;11.50;99.90
13462;DHT22;6803;45.264;5.468;2023-03-31T03:40:56;11.50;99.90
13462;DHT22;6803;45.264;5.468;2023-03-31T03:43:26;11.50;99.90
13462;DHT22;6803;45.264;5.468;2023-03-31T03:45:57;11.40;99.90
13462;DHT22;6803;45.264;5.468;2023-03-31T03:48:28;11.40;99.90
13462;DHT22;6803;45.264;5.468;2023-03-31T03:51:00;11.60;99.90
13462;DHT22;6803;45.264;5.468;2023-03-31T03:53:31;11.50;99.90
13462;DHT22;6803;45.264;5.468;2023-03-31T03:56:02;11.50;99.90
13462;DHT22;6803;45.264;5.468;2023-03-31T03:58:34;11.40;99.90
13462;DHT22;6803;45.264;5.468;2023-03-31T04:01:05;11.40;99.90
13462;DHT22;6803;45.264;5.468;2023-03-31T04:03:35;11.50;99.90
13462;DHT22;6803;45.264;5.468;2023-03-31T04:06:07;11.40;99.90
13462;DHT22;6803;45.264;5.468;2023-03-31T04:08:37;11.40;99.90
13462;DHT22;6803;45.264;5.468;2023-03-31T04:11:13;11.40;99.90
13462;DHT22;6803;45.264;5.468;2023-03-31T04:14:05;11.40;99.90
13462;DHT22;6803;45.264;5.468;2023-03-31T04:16:36;11.40;99.90
13462;DHT22;6803;45.264;5.468;2023-03-31T04:19:09;11.40;99.90
13462;DHT22;6803;45.264;5.468;2023-03-31T04:21:43;11.50;99.90
13462;DHT22;6803;45.264;5.468;2023-03-31T04:24:14;11.40;99.90
13462;DHT22;6803;45.264;5.468;2023-03-31T04:26:47;11.50;99.90
13462;DHT22;6803;45.264;5.468;2023-03-31T04:29:19;11.40;99.90
13462;DHT22;6803;45.264;5.468;2023-03-31T04:34:30;11.50;99.90
13462;DHT22;6803;45.264;5.468;2023-03-31T04:37:04;11.50;99.90
13462;DHT22;6803;45.264;5.468;2023-03-31T04:39:37;11.40;99.90
13462;DHT22;6803;45.264;5.468;2023-03-31T04:42:08;11.40;99.90
13462;DHT22;6803;45.264;5.468;2023-03-31T04:44:39;11.40;99.90
13462;DHT22;6803;45.264;5.468;2023-03-31T04:47:10;11.40;99.90
13462;DHT22;6803;45.264;5.468;2023-03-31T04:49:40;11.40;99.90
13462;DHT22;6803;45.264;5.468;2023-03-31T04:52:11;11.50;99.90
13462;DHT22;6803;45.264;5.468;2023-03-31T04:54:42;11.40;99.90
13462;DHT22;6803;45.264;5.468;2023-03-31T04:57:13;11.50;99.90
13462;DHT22;6803;45.264;5.468;2023-03-31T04:59:45;11.50;99.90
13462;DHT22;6803;45.264;5.468;2023-03-31T05:02:16;11.50;99.90
13462;DHT22;6803;45.264;5.468;2023-03-31T05:04:50;11.50;99.90
13462;DHT22;6803;45.264;5.468;2023-03-31T05:07:21;11.50;99.90
13462;DHT22;6803;45.264;5.468;2023-03-31T05:09:52;11.50;99.90
13462;DHT22;6803;45.264;5.468;2023-03-31T05:12:23;11.50;99.90
13462;DHT22;6803;45.264;5.468;2023-03-31T05:14:54;11.50;99.90
13462;DHT22;6803;45.264;5.468;2023-03-31T05:17:25;11.40;99.90
13462;DHT22;6803;45.264;5.468;2023-03-31T05:19:56;11.40;99.90
13462;DHT22;6803;45.264;5.468;2023-03-31T05:22:27;11.50;99.90
13462;DHT22;6803;45.264;5.468;2023-03-31T05:24:59;11.50;99.90
13462;DHT22;6803;45.264;5.468;2023-03-31T05:27:30;11.40;99.90
13462;DHT22;6803;45.264;5.468;2023-03-31T05:30:01;11.40;99.90
13462;DHT22;6803;45.264;5.468;2023-03-31T05:32:32;11.30;99.90
13462;DHT22;6803;45.264;5.468;2023-03-31T05:35:03;11.30;99.90
13462;DHT22;6803;45.264;5.468;2023-03-31T05:37:34;11.40;99.90
13462;DHT22;6803;45.264;5.468;2023-03-31T05:42:45;11.40;99.90
13462;DHT22;6803;45.264;5.468;2023-03-31T05:45:16;11.40;99.90
13462;DHT22;6803;45.264;5.468;2023-03-31T05:47:47;11.40;99.90
13462;DHT22;6803;45.264;5.468;2023-03-31T05:50:19;11.30;99.90
13462;DHT22;6803;45.264;5.468;2023-03-31T05:52:50;11.30;99.90
13462;DHT22;6803;45.264;5.468;2023-03-31T05:55:21;11.30;99.90
13462;DHT22;6803;45.264;5.468;2023-03-31T05:57:52;11.30;99.90
13462;DHT22;6803;45.264;5.468;2023-03-31T06:00:24;11.20;99.90
13462;DHT22;6803;45.264;5.468;2023-03-31T06:03:08;11.20;99.90
13462;DHT22;6803;45.264;5.468;2023-03-31T06:05:39;11.20;99.90
13462;DHT22;6803;45.264;5.468;2023-03-31T06:08:09;11.30;99.90
13462;DHT22;6803;45.264;5.468;2023-03-31T06:10:40;11.30;99.90
13462;DHT22;6803;45.264;5.468;2023-03-31T06:13:11;11.40;99.90
13462;DHT22;6803;45.264;5.468;2023-03-31T06:18:19;11.40;99.90
13462;DHT22;6803;45.264;5.468;2023-03-31T06:20:51;11.40;99.90
13462;DHT22;6803;45.264;5.468;2023-03-31T06:23:22;11.40;99.90
13462;DHT22;6803;45.264;5.468;2023-03-31T06:25:53;11.40;99.90
13462;DHT22;6803;45.264;5.468;2023-03-31T06:28:24;11.40;99.90
13462;DHT22;6803;45.264;5.468;2023-03-31T06:31:02;11.40;99.90
13462;DHT22;6803;45.264;5.468;2023-03-31T06:33:35;11.40;99.90
13462;DHT22;6803;45.264;5.468;2023-03-31T06:36:07;11.40;99.90
13462;DHT22;6803;45.264;5.468;2023-03-31T06:38:38;11.40;99.90
13462;DHT22;6803;45.264;5.468;2023-03-31T06:41:11;11.50;99.90
13462;DHT22;6803;45.264;5.468;2023-03-31T06:43:43;11.50;99.90
13462;DHT22;6803;45.264;5.468;2023-03-31T06:46:14;11.60;99.90
13462;DHT22;6803;45.264;5.468;2023-03-31T06:48:45;11.50;99.90
13462;DHT22;6803;45.264;5.468;2023-03-31T06:51:16;11.50;99.90
13462;DHT22;6803;45.264;5.468;2023-03-31T06:53:47;11.40;99.90
13462;DHT22;6803;45.264;5.468;2023-03-31T06:56:18;11.30;99.90
13462;DHT22;6803;45.264;5.468;2023-03-31T06:58:50;11.40;99.90
13462;DHT22;6803;45.264;5.468;2023-03-31T07:01:21;11.40;99.90
13462;DHT22;6803;45.264;5.468;2023-03-31T07:03:52;11.40;99.90
13462;DHT22;6803;45.264;5.468;2023-03-31T07:06:23;11.40;99.90
13462;DHT22;6803;45.264;5.468;2023-03-31T07:08:53;11.40;99.90
13462;DHT22;6803;45.264;5.468;2023-03-31T07:11:25;11.40;99.90
13462;DHT22;6803;45.264;5.468;2023-03-31T07:13:56;11.40;99.90
13462;DHT22;6803;45.264;5.468;2023-03-31T07:16:26;11.30;99.90
13462;DHT22;6803;45.264;5.468;2023-03-31T07:18:57;11.30;99.90
13462;DHT22;6803;45.264;5.468;2023-03-31T07:21:30;11.30;99.90
13462;DHT22;6803;45.264;5.468;2023-03-31T07:24:00;11.30;99.90
13462;DHT22;6803;45.264;5.468;2023-03-31T07:26:31;11.20;99.90
13462;DHT22;6803;45.264;5.468;2023-03-31T07:29:02;11.20;99.90
13462;DHT22;6803;45.264;5.468;2023-03-31T07:31:33;11.20;99.90
13462;DHT22;6803;45.264;5.468;2023-03-31T07:34:04;11.20;99.90
13462;DHT22;6803;45.264;5.468;2023-03-31T07:36:34;11.20;99.90
13462;DHT22;6803;45.264;5.468;2023-03-31T07:39:06;11.10;99.90
13462;DHT22;6803;45.264;5.468;2023-03-31T07:41:37;11.10;99.90
13462;DHT22;6803;45.264;5.468;2023-03-31T07:44:08;11.00;99.90
13462;DHT22;6803;45.264;5.468;2023-03-31T07:46:39;11.00;99.90
13462;DHT22;6803;45.264;5.468;2023-03-31T07:49:10;11.00;99.90
13462;DHT22;6803;45.264;5.468;2023-03-31T07:51:42;11.10;99.90
13462;DHT22;6803;45.264;5.468;2023-03-31T07:54:13;11.20;99.90
13462;DHT22;6803;45.264;5.468;2023-03-31T07:56:44;11.20;99.90
13462;DHT22;6803;45.264;5.468;2023-03-31T07:59:15;11.20;99.90
13462;DHT22;6803;45.264;5.468;2023-03-31T08:01:46;11.30;99.90
13462;DHT22;6803;45.264;5.468;2023-03-31T08:04:16;11.30;99.90
13462;DHT22;6803;45.264;5.468;2023-03-31T08:06:47;11.40;99.90
13462;DHT22;6803;45.264;5.468;2023-03-31T08:09:20;11.40;99.90
13462;DHT22;6803;45.264;5.468;2023-03-31T08:11:51;11.40;99.90
13462;DHT22;6803;45.264;5.468;2023-03-31T08:14:22;11.50;99.90
13462;DHT22;6803;45.264;5.468;2023-03-31T08:16:54;11.50;99.90
13462;DHT22;6803;45.264;5.468;2023-03-31T08:19:26;11.40;99.90
13462;DHT22;6803;45.264;5.468;2023-03-31T08:21:57;11.40;99.90
13462;DHT22;6803;45.264;5.468;2023-03-31T08:24:28;11.40;99.90
13462;DHT22;6803;45.264;5.468;2023-03-31T08:26:59;11.40;99.90
13462;DHT22;6803;45.264;5.468;2023-03-31T08:29:29;11.30;99.90
13462;DHT22;6803;45.264;5.468;2023-03-31T08:32:00;11.20;99.90
13462;DHT22;6803;45.264;5.468;2023-03-31T08:34:31;11.30;99.90
13462;DHT22;6803;45.264;5.468;2023-03-31T08:37:02;11.30;99.90
13462;DHT22;6803;45.264;5.468;2023-03-31T08:39:34;11.40;99.90
13462;DHT22;6803;45.264;5.468;2023-03-31T08:42:10;11.40;99.90
13462;DHT22;6803;45.264;5.468;2023-03-31T08:44:44;11.50;99.90
13462;DHT22;6803;45.264;5.468;2023-03-31T08:47:19;11.60;99.90
13462;DHT22;6803;45.264;5.468;2023-03-31T08:49:53;11.60;99.90
13462;DHT22;6803;45.264;5.468;2023-03-31T08:52:28;11.70;99.90
13462;DHT22;6803;45.264;5.468;2023-03-31T08:55:00;11.60;99.90
13462;DHT22;6803;45.264;5.468;2023-03-31T08:57:37;11.70;99.90
13462;DHT22;6803;45.264;5.468;2023-03-31T09:00:15;11.70;99.90
13462;DHT22;6803;45.264;5.468;2023-03-31T09:02:51;11.60;99.90
13462;DHT22;6803;45.264;5.468;2023-03-31T09:05:44;11.60;99.90
13462;DHT22;6803;45.264;5.468;2023-03-31T09:08:24;11.50;99.90
13462;DHT22;6803;45.264;5.468;2023-03-31T09:11:00;11.60;99.90
13462;DHT22;6803;45.264;5.468;2023-03-31T09:13:43;11.60;99.90
13462;DHT22;6803;45.264;5.468;2023-03-31T09:16:15;11.60;99.90
13462;DHT22;6803;45.264;5.468;2023-03-31T09:18:47;11.70;99.90
13462;DHT22;6803;45.264;5.468;2023-03-31T09:21:21;11.90;99.90
13462;DHT22;6803;45.264;5.468;2023-03-31T09:23:55;12.00;99.90
13462;DHT22;6803;45.264;5.468;2023-03-31T09:26:33;12.10;99.90
13462;DHT22;6803;45.264;5.468;2023-03-31T09:29:09;12.10;99.90
13462;DHT22;6803;45.264;5.468;2023-03-31T09:31:41;12.30;99.90
13462;DHT22;6803;45.264;5.468;2023-03-31T09:34:22;12.90;99.90
13462;DHT22;6803;45.264;5.468;2023-03-31T09:36:51;13.40;99.90
13462;DHT22;6803;45.264;5.468;2023-03-31T09:39:21;13.40;99.90
13462;DHT22;6803;45.264;5.468;2023-03-31T09:41:53;13.60;99.90
13462;DHT22;6803;45.264;5.468;2023-03-31T09:47:12;14.00;99.90
13462;DHT22;6803;45.264;5.468;2023-03-31T09:49:45;14.20;99.90
13462;DHT22;6803;45.264;5.468;2023-03-31T09:55:03;14.20;99.90
13462;DHT22;6803;45.264;5.468;2023-03-31T09:57:37;14.30;99.90
13462;DHT22;6803;45.264;5.468;2023-03-31T10:00:17;14.80;99.90
13462;DHT22;6803;45.264;5.468;2023-03-31T10:02:50;15.20;99.90
13462;DHT22;6803;45.264;5.468;2023-03-31T10:05:29;15.50;99.90
13462;DHT22;6803;45.264;5.468;2023-03-31T10:08:26;15.60;99.90
13462;DHT22;6803;45.264;5.468;2023-03-31T10:11:07;15.80;99.90
13462;DHT22;6803;45.264;5.468;2023-03-31T10:16:27;15.90;99.90
13462;DHT22;6803;45.264;5.468;2023-03-31T10:19:13;15.90;99.90
13462;DHT22;6803;45.264;5.468;2023-03-31T10:21:47;15.70;99.90
13462;DHT22;6803;45.264;5.468;2023-03-31T10:24:19;15.70;99.90
13462;DHT22;6803;45.264;5.468;2023-03-31T10:26:52;16.20;99.90
13462;DHT22;6803;45.264;5.468;2023-03-31T10:29:27;16.20;99.90
13462;DHT22;6803;45.264;5.468;2023-03-31T10:32:04;16.30;99.90
13462;DHT22;6803;45.264;5.468;2023-03-31T10:34:39;16.50;99.90
13462;DHT22;6803;45.264;5.468;2023-03-31T10:37:15;16.50;99.90
13462;DHT22;6803;45.264;5.468;2023-03-31T10:39:46;16.90;99.90
13462;DHT22;6803;45.264;5.468;2023-03-31T10:42:22;17.50;99.90
13462;DHT22;6803;45.264;5.468;2023-03-31T10:45:11;17.50;99.90
13462;DHT22;6803;45.264;5.468;2023-03-31T10:47:52;17.50;99.90
13462;DHT22;6803;45.264;5.468;2023-03-31T10:50:18;17.70;99.90
13462;DHT22;6803;45.264;5.468;2023-03-31T10:52:49;17.60;99.90
13462;DHT22;6803;45.264;5.468;2023-03-31T10:55:22;17.50;99.90
13462;DHT22;6803;45.264;5.468;2023-03-31T10:57:55;17.70;99.90
13462;DHT22;6803;45.264;5.468;2023-03-31T11:00:30;18.40;99.90
13462;DHT22;6803;45.264;5.468;2023-03-31T11:06:18;18.60;99.90
13462;DHT22;6803;45.264;5.468;2023-03-31T11:08:53;18.60;99.90
13462;DHT22;6803;45.264;5.468;2023-03-31T11:11:40;18.40;99.90
13462;DHT22;6803;45.264;5.468;2023-03-31T11:14:14;18.80;99.90
13462;DHT22;6803;45.264;5.468;2023-03-31T11:16:48;18.60;99.90
13462;DHT22;6803;45.264;5.468;2023-03-31T11:19:26;18.50;99.90
13462;DHT22;6803;45.264;5.468;2023-03-31T11:22:02;18.80;99.90
13462;DHT22;6803;45.264;5.468;2023-03-31T11:24:41;18.90;99.90
13462;DHT22;6803;45.264;5.468;2023-03-31T11:29:56;18.60;99.90
13462;DHT22;6803;45.264;5.468;2023-03-31T11:32:35;18.80;99.90
13462;DHT22;6803;45.264;5.468;2023-03-31T11:35:16;18.60;99.90
13462;DHT22;6803;45.264;5.468;2023-03-31T11:37:57;18.40;99.90
13462;DHT22;6803;45.264;5.468;2023-03-31T11:40:38;18.20;99.90
13462;DHT22;6803;45.264;5.468;2023-03-31T11:43:14;18.20;99.90
13462;DHT22;6803;45.264;5.468;2023-03-31T11:45:48;18.50;99.90
13462;DHT22;6803;45.264;5.468;2023-03-31T11:48:24;18.30;99.90
13462;DHT22;6803;45.264;5.468;2023-03-31T11:50:55;18.10;99.90
13462;DHT22;6803;45.264;5.468;2023-03-31T11:53:29;17.80;99.90
13462;DHT22;6803;45.264;5.468;2023-03-31T11:56:01;17.70;99.90
13462;DHT22;6803;45.264;5.468;2023-03-31T11:58:37;17.70;99.90
13462;DHT22;6803;45.264;5.468;2023-03-31T12:01:14;17.90;99.90
13462;DHT22;6803;45.264;5.468;2023-03-31T12:03:51;18.60;99.90
13462;DHT22;6803;45.264;5.468;2023-03-31T12:06:27;18.60;99.90
13462;DHT22;6803;45.264;5.468;2023-03-31T12:09:09;18.60;99.90
13462;DHT22;6803;45.264;5.468;2023-03-31T12:11:43;18.30;99.90
13462;DHT22;6803;45.264;5.468;2023-03-31T12:14:26;18.30;99.90
13462;DHT22;6803;45.264;5.468;2023-03-31T12:17:01;18.90;99.90
13462;DHT22;6803;45.264;5.468;2023-03-31T12:19:35;19.10;99.90
13462;DHT22;6803;45.264;5.468;2023-03-31T12:22:10;19.70;99.90
13462;DHT22;6803;45.264;5.468;2023-03-31T12:24:42;20.20;99.90
13462;DHT22;6803;45.264;5.468;2023-03-31T12:27:15;20.80;99.60
13462;DHT22;6803;45.264;5.468;2023-03-31T12:29:52;21.00;99.90
13462;DHT22;6803;45.264;5.468;2023-03-31T12:32:25;20.90;99.90
13462;DHT22;6803;45.264;5.468;2023-03-31T12:34:58;21.20;99.60
13462;DHT22;6803;45.264;5.468;2023-03-31T12:38:09;21.70;99.40
13462;DHT22;6803;45.264;5.468;2023-03-31T12:40:54;22.50;99.90
13462;DHT22;6803;45.264;5.468;2023-03-31T12:43:54;21.00;97.50
13462;DHT22;6803;45.264;5.468;2023-03-31T12:46:41;21.30;98.00
13462;DHT22;6803;45.264;5.468;2023-03-31T12:49:19;21.50;97.80
13462;DHT22;6803;45.264;5.468;2023-03-31T12:51:59;21.70;95.50
13462;DHT22;6803;45.264;5.468;2023-03-31T12:54:45;21.90;96.00
13462;DHT22;6803;45.264;5.468;2023-03-31T12:57:21;21.90;95.30
13462;DHT22;6803;45.264;5.468;2023-03-31T13:00:17;22.30;95.00
13462;DHT22;6803;45.264;5.468;2023-03-31T13:02:49;22.50;95.80
13462;DHT22;6803;45.264;5.468;2023-03-31T13:05:46;22.30;95.90
13462;DHT22;6803;45.264;5.468;2023-03-31T13:08:51;22.50;94.40
13462;DHT22;6803;45.264;5.468;2023-03-31T13:11:33;22.70;94.60
13462;DHT22;6803;45.264;5.468;2023-03-31T13:14:11;21.90;95.30
13462;DHT22;6803;45.264;5.468;2023-03-31T13:16:43;22.00;95.90
13462;DHT22;6803;45.264;5.468;2023-03-31T13:19:25;22.50;95.70
13462;DHT22;6803;45.264;5.468;2023-03-31T13:21:57;22.60;95.60
13462;DHT22;6803;45.264;5.468;2023-03-31T13:24:31;22.10;93.90
13462;DHT22;6803;45.264;5.468;2023-03-31T13:27:28;21.20;96.70
13462;DHT22;6803;45.264;5.468;2023-03-31T13:29:57;20.30;95.30
13462;DHT22;6803;45.264;5.468;2023-03-31T13:32:28;20.10;96.30
13462;DHT22;6803;45.264;5.468;2023-03-31T13:37:52;20.60;96.60
13462;DHT22;6803;45.264;5.468;2023-03-31T13:46:56;19.60;99.00
13462;DHT22;6803;45.264;5.468;2023-03-31T13:49:51;19.20;97.30
13462;DHT22;6803;45.264;5.468;2023-03-31T13:52:38;19.10;98.40
13462;DHT22;6803;45.264;5.468;2023-03-31T13:58:38;18.00;99.90
13462;DHT22;6803;45.264;5.468;2023-03-31T14:01:35;17.40;99.90
13462;DHT22;6803;45.264;5.468;2023-03-31T14:04:41;16.20;99.90
13462;DHT22;6803;45.264;5.468;2023-03-31T14:07:14;15.20;99.90
13462;DHT22;6803;45.264;5.468;2023-03-31T14:09:46;15.00;99.90
13462;DHT22;6803;45.264;5.468;2023-03-31T14:12:29;14.90;99.90
13462;DHT22;6803;45.264;5.468;2023-03-31T14:14:56;14.70;99.90
13462;DHT22;6803;45.264;5.468;2023-03-31T14:17:28;14.60;99.90
13462;DHT22;6803;45.264;5.468;2023-03-31T14:26:11;14.70;99.90
13462;DHT22;6803;45.264;5.468;2023-03-31T14:28:52;15.00;99.90
13462;DHT22;6803;45.264;5.468;2023-03-31T14:31:27;15.10;99.90
13462;DHT22;6803;45.264;5.468;2023-03-31T14:34:19;15.50;99.90
13462;DHT22;6803;45.264;5.468;2023-03-31T14:36:56;15.30;99.90
13462;DHT22;6803;45.264;5.468;2023-03-31T14:39:46;15.40;99.90
13462;DHT22;6803;45.264;5.468;2023-03-31T14:42:20;15.10;99.90
13462;DHT22;6803;45.264;5.468;2023-03-31T14:44:57;15.00;99.90
13462;DHT22;6803;45.264;5.468;2023-03-31T14:47:28;15.00;99.90
13462;DHT22;6803;45.264;5.468;2023-03-31T14:50:00;15.10;99.90
13462;DHT22;6803;45.264;5.468;2023-03-31T14:52:33;15.00;99.90
13462;DHT22;6803;45.264;5.468;2023-03-31T14:55:12;15.10;99.90
13462;DHT22;6803;45.264;5.468;2023-03-31T14:57:45;15.10;99.90
13462;DHT22;6803;45.264;5.468;2023-03-31T15:00:20;15.00;99.90
13462;DHT22;6803;45.264;5.468;2023-03-31T15:02:52;15.10;99.90
13462;DHT22;6803;45.264;5.468;2023-03-31T15:05:29;15.10;99.90
13462;DHT22;6803;45.264;5.468;2023-03-31T15:08:02;15.50;99.90
13462;DHT22;6803;45.264;5.468;2023-03-31T15:10:36;16.60;99.90
13462;DHT22;6803;45.264;5.468;2023-03-31T15:13:11;16.90;99.90
13462;DHT22;6803;45.264;5.468;2023-03-31T15:15:44;16.80;99.90
13462;DHT22;6803;45.264;5.468;2023-03-31T15:18:17;16.80;99.90
13462;DHT22;6803;45.264;5.468;2023-03-31T15:20:49;16.90;99.90
13462;DHT22;6803;45.264;5.468;2023-03-31T15:23:22;17.10;99.90
13462;DHT22;6803;45.264;5.468;2023-03-31T15:26:00;16.70;99.90
13462;DHT22;6803;45.264;5.468;2023-03-31T15:28:34;16.60;99.90
13462;DHT22;6803;45.264;5.468;2023-03-31T15:31:06;16.30;99.90
13462;DHT22;6803;45.264;5.468;2023-03-31T15:33:40;16.10;99.90
13462;DHT22;6803;45.264;5.468;2023-03-31T15:36:12;16.00;99.90
13462;DHT22;6803;45.264;5.468;2023-03-31T15:38:45;15.90;99.90
13462;DHT22;6803;45.264;5.468;2023-03-31T15:41:17;15.80;99.90
13462;DHT22;6803;45.264;5.468;2023-03-31T15:44:01;15.90;99.90
13462;DHT22;6803;45.264;5.468;2023-03-31T15:46:24;15.70;99.90
13462;DHT22;6803;45.264;5.468;2023-03-31T15:48:57;15.60;99.90
13462;DHT22;6803;45.264;5.468;2023-03-31T15:51:33;15.50;99.90
13462;DHT22;6803;45.264;5.468;2023-03-31T15:54:12;15.40;99.90
13462;DHT22;6803;45.264;5.468;2023-03-31T15:56:45;15.50;99.90
13462;DHT22;6803;45.264;5.468;2023-03-31T15:59:24;15.40;99.90
13462;DHT22;6803;45.264;5.468;2023-03-31T16:01:59;15.40;99.90
13462;DHT22;6803;45.264;5.468;2023-03-31T16:04:33;15.40;99.90
13462;DHT22;6803;45.264;5.468;2023-03-31T16:07:06;15.50;99.90
13462;DHT22;6803;45.264;5.468;2023-03-31T16:09:42;15.60;99.90
13462;DHT22;6803;45.264;5.468;2023-03-31T16:12:18;15.50;99.90
13462;DHT22;6803;45.264;5.468;2023-03-31T16:14:53;15.40;99.90
13462;DHT22;6803;45.264;5.468;2023-03-31T16:17:28;15.30;99.90
13462;DHT22;6803;45.264;5.468;2023-03-31T16:20:02;15.20;99.90
13462;DHT22;6803;45.264;5.468;2023-03-31T16:22:38;15.40;99.90
13462;DHT22;6803;45.264;5.468;2023-03-31T16:25:13;15.30;99.90
13462;DHT22;6803;45.264;5.468;2023-03-31T16:27:47;15.30;99.90
13462;DHT22;6803;45.264;5.468;2023-03-31T16:30:22;15.40;99.90
13462;DHT22;6803;45.264;5.468;2023-03-31T16:33:01;15.30;99.90
13462;DHT22;6803;45.264;5.468;2023-03-31T16:35:34;15.10;99.90
13462;DHT22;6803;45.264;5.468;2023-03-31T16:38:07;15.30;99.90
13462;DHT22;6803;45.264;5.468;2023-03-31T16:40:40;15.30;99.90
13462;DHT22;6803;45.264;5.468;2023-03-31T16:43:13;15.40;99.90
13462;DHT22;6803;45.264;5.468;2023-03-31T16:45:46;15.40;99.90
13462;DHT22;6803;45.264;5.468;2023-03-31T16:48:18;15.30;99.90
13462;DHT22;6803;45.264;5.468;2023-03-31T16:50:53;15.10;99.90
13462;DHT22;6803;45.264;5.468;2023-03-31T16:53:26;14.90;99.90
13462;DHT22;6803;45.264;5.468;2023-03-31T16:55:58;14.80;99.90
13462;DHT22;6803;45.264;5.468;2023-03-31T16:58:29;14.70;99.90
13462;DHT22;6803;45.264;5.468;2023-03-31T17:01:00;14.50;99.90
13462;DHT22;6803;45.264;5.468;2023-03-31T17:03:32;14.40;99.90
13462;DHT22;6803;45.264;5.468;2023-03-31T17:06:08;14.30;99.90
13462;DHT22;6803;45.264;5.468;2023-03-31T17:08:39;14.40;99.90
13462;DHT22;6803;45.264;5.468;2023-03-31T17:11:12;14.40;99.90
13462;DHT22;6803;45.264;5.468;2023-03-31T17:13:44;14.40;99.90
13462;DHT22;6803;45.264;5.468;2023-03-31T17:16:15;14.20;99.90
13462;DHT22;6803;45.264;5.468;2023-03-31T17:18:47;14.30;99.90
13462;DHT22;6803;45.264;5.468;2023-03-31T17:21:19;14.30;99.90
13462;DHT22;6803;45.264;5.468;2023-03-31T17:23:53;14.20;99.90
13462;DHT22;6803;45.264;5.468;2023-03-31T17:26:23;14.20;99.90
13462;DHT22;6803;45.264;5.468;2023-03-31T17:28:55;14.20;99.90
13462;DHT22;6803;45.264;5.468;2023-03-31T17:31:26;14.00;99.90
13462;DHT22;6803;45.264;5.468;2023-03-31T17:33:58;13.80;99.90
13462;DHT22;6803;45.264;5.468;2023-03-31T17:36:29;13.90;99.90
13462;DHT22;6803;45.264;5.468;2023-03-31T17:39:00;13.90;99.90
13462;DHT22;6803;45.264;5.468;2023-03-31T17:41:33;13.50;99.90
13462;DHT22;6803;45.264;5.468;2023-03-31T17:44:04;13.50;99.90